createdAt,value
2022-10-01T00:01:21.294Z,99142.09
2022-10-01T00:04:23.670Z,99138.69
2022-10-01T00:07:26.267Z,99137.22
2022-10-01T00:10:31.367Z,99124.00
2022-10-01T00:13:33.509Z,99124.00
2022-10-01T00:16:35.880Z,99129.88
2022-10-01T00:19:38.077Z,99123.06
2022-10-01T00:22:40.301Z,99105.72
2022-10-01T00:25:43.717Z,99076.38
2022-10-01T00:28:47.917Z,99110.91
2022-10-01T00:31:50.288Z,99194.16
2022-10-01T00:34:53.744Z,99240.97
2022-10-01T00:37:55.940Z,99155.19
2022-10-01T00:40:58.634Z,99099.13
2022-10-01T00:44:46.025Z,99086.81
2022-10-01T00:47:51.996Z,99104.47
2022-10-01T00:50:54.177Z,99108.75
2022-10-01T00:54:02.776Z,99110.84
2022-10-01T00:57:06.986Z,99107.00
2022-10-01T01:00:10.935Z,99104.53
2022-10-01T01:03:13.487Z,99101.78
2022-10-01T01:06:15.707Z,99109.78
2022-10-01T01:09:17.888Z,99113.56
2022-10-01T01:12:29.239Z,99117.28
2022-10-01T01:15:37.541Z,99123.50
2022-10-01T01:18:55.576Z,99132.69
2022-10-01T01:22:00.893Z,99122.97
2022-10-01T01:25:09.297Z,99108.00
2022-10-01T01:28:31.789Z,99101.66
2022-10-01T01:31:40.434Z,99101.41
2022-10-01T01:34:45.066Z,99100.53
2022-10-01T01:37:52.174Z,99112.62
2022-10-01T01:40:57.049Z,99132.75
2022-10-01T01:44:02.354Z,99164.44
2022-10-01T01:47:06.820Z,99170.13
2022-10-01T01:50:10.921Z,99129.28
2022-10-01T01:53:15.169Z,99124.69
2022-10-01T01:56:17.464Z,99123.34
2022-10-01T01:59:19.692Z,99112.97
2022-10-01T02:02:33.311Z,99115.50
2022-10-01T02:05:44.161Z,99125.19
2022-10-01T02:08:51.101Z,99122.19
2022-10-01T02:12:07.563Z,99110.59
2022-10-01T02:15:21.638Z,99115.66
2022-10-01T02:18:48.858Z,99109.50
2022-10-01T02:21:50.963Z,99105.69
2022-10-01T02:24:58.671Z,99104.03
2022-10-01T02:28:03.886Z,99104.47
2022-10-01T02:31:06.853Z,99101.13
2022-10-01T02:34:12.365Z,99101.50
2022-10-01T02:37:15.266Z,99100.69
2022-10-01T02:40:20.183Z,99107.44
2022-10-01T02:43:29.722Z,99106.63
2022-10-01T02:46:53.078Z,99126.97
2022-10-01T02:49:55.297Z,99128.25
2022-10-01T02:53:05.851Z,99120.25
2022-10-01T02:56:09.155Z,99116.75
2022-10-01T02:59:11.357Z,99105.59
2022-10-01T03:02:13.663Z,99103.38
2022-10-01T03:05:17.550Z,99110.16
2022-10-01T03:08:19.724Z,99104.25
2022-10-01T03:11:21.904Z,99109.13
2022-10-01T03:14:24.706Z,99104.03
2022-10-01T03:17:27.270Z,99105.22
2022-10-01T03:20:29.441Z,99099.97
2022-10-01T03:23:31.578Z,99118.19
2022-10-01T03:26:33.741Z,99112.25
2022-10-01T03:29:35.861Z,99097.56
2022-10-01T03:32:38.269Z,99094.94
2022-10-01T03:35:40.437Z,99091.50
2022-10-01T03:38:42.664Z,99095.72
2022-10-01T03:41:45.056Z,99105.06
2022-10-01T03:44:47.935Z,99104.97
2022-10-01T03:47:53.479Z,99115.06
2022-10-01T03:50:59.828Z,99126.41
2022-10-01T03:54:01.999Z,99145.94
2022-10-01T03:57:04.182Z,99157.78
2022-10-01T04:00:06.712Z,99178.44
2022-10-01T04:03:09.015Z,99165.69
2022-10-01T04:06:11.569Z,99166.28
2022-10-01T04:09:13.760Z,99155.34
2022-10-01T04:12:15.921Z,99144.59
2022-10-01T04:15:18.196Z,99149.03
2022-10-01T04:18:21.783Z,99129.34
2022-10-01T04:21:23.916Z,99115.34
2022-10-01T04:24:26.095Z,99092.38
2022-10-01T04:27:28.232Z,99091.31
2022-10-01T04:30:36.048Z,99092.34
2022-10-01T04:33:38.225Z,99100.50
2022-10-01T04:36:40.363Z,99097.47
2022-10-01T04:39:42.503Z,99111.84
2022-10-01T04:42:44.687Z,99106.28
2022-10-01T04:45:46.820Z,99107.78
2022-10-01T04:48:49.511Z,99101.09
2022-10-01T04:51:51.748Z,99102.34
2022-10-01T04:54:53.887Z,99107.09
2022-10-01T04:57:56.055Z,99113.03
2022-10-01T05:01:01.755Z,99097.69
2022-10-01T05:04:04.463Z,99111.03
2022-10-01T05:07:06.621Z,99114.88
2022-10-01T05:10:12.426Z,99102.22
2022-10-01T05:13:14.895Z,99108.19
2022-10-01T05:16:17.110Z,99102.97
2022-10-01T05:19:19.268Z,99105.62
2022-10-01T05:22:21.407Z,99111.75
2022-10-01T05:25:23.851Z,99118.84
2022-10-01T05:28:27.095Z,99120.03
2022-10-01T05:31:29.337Z,99130.03
2022-10-01T05:34:31.560Z,99150.41
2022-10-01T05:37:34.464Z,99159.66
2022-10-01T05:40:36.674Z,99170.22
2022-10-01T05:43:38.862Z,99177.94
2022-10-01T05:46:41.656Z,99175.53
2022-10-01T05:49:44.542Z,99170.31
2022-10-01T05:52:53.061Z,99159.31
2022-10-01T05:55:55.253Z,99149.09
2022-10-01T05:58:57.397Z,99145.75
2022-10-01T06:01:59.731Z,99138.19
2022-10-01T06:05:02.032Z,99141.13
2022-10-01T06:08:09.771Z,99138.63
2022-10-01T06:11:12.134Z,99128.50
2022-10-01T06:14:14.471Z,99117.19
2022-10-01T06:17:16.623Z,99111.50
2022-10-01T06:20:20.266Z,99098.91
2022-10-01T06:23:22.497Z,99099.63
2022-10-01T06:26:24.893Z,99101.50
2022-10-01T06:29:27.032Z,99104.88
2022-10-01T06:32:32.812Z,99099.66
2022-10-01T06:35:41.142Z,99097.91
2022-10-01T06:38:43.392Z,99090.59
2022-10-01T06:41:47.703Z,99091.78
2022-10-01T06:44:49.840Z,99086.13
2022-10-01T06:48:03.959Z,99083.59
2022-10-01T06:51:06.532Z,99078.69
2022-10-01T06:54:09.028Z,99080.91
2022-10-01T06:57:11.322Z,99097.88
2022-10-01T07:00:14.714Z,99094.16
2022-10-01T07:03:21.834Z,99089.72
2022-10-01T07:06:23.992Z,99093.59
2022-10-01T07:09:26.594Z,99097.50
2022-10-01T07:12:29.188Z,99092.16
2022-10-01T07:15:31.361Z,99095.31
2022-10-01T07:18:33.515Z,99107.28
2022-10-01T07:21:35.993Z,99111.59
2022-10-01T07:24:38.644Z,99106.69
2022-10-01T07:27:41.296Z,99104.97
2022-10-01T07:31:00.932Z,99110.09
2022-10-01T07:34:03.072Z,99104.38
2022-10-01T07:37:05.346Z,99108.31
2022-10-01T07:40:08.682Z,99098.22
2022-10-01T07:43:10.837Z,99090.78
2022-10-01T07:46:13.067Z,99086.50
2022-10-01T07:49:16.742Z,99074.03
2022-10-01T07:52:18.891Z,99065.88
2022-10-01T07:55:21.659Z,99068.97
2022-10-01T07:58:24.305Z,99068.97
2022-10-01T08:01:26.696Z,99082.62
2022-10-01T08:04:47.064Z,99078.13
2022-10-01T08:07:49.759Z,99090.47
2022-10-01T08:10:51.936Z,99094.69
2022-10-01T08:13:55.946Z,99099.88
2022-10-01T08:16:58.318Z,99095.50
2022-10-01T08:20:01.461Z,99084.69
2022-10-01T08:23:05.230Z,99077.75
2022-10-01T08:26:08.364Z,99073.84
2022-10-01T08:29:14.809Z,99077.41
2022-10-01T08:32:19.274Z,99083.03
2022-10-01T08:35:21.789Z,99081.84
2022-10-01T08:38:25.103Z,99083.59
2022-10-01T08:41:44.093Z,99076.13
2022-10-01T08:44:46.671Z,99080.50
2022-10-01T08:48:06.044Z,99084.75
2022-10-01T08:51:10.636Z,99070.75
2022-10-01T08:54:31.486Z,99074.44
2022-10-01T08:57:42.400Z,99050.38
2022-10-01T09:00:45.425Z,99036.97
2022-10-01T09:03:48.215Z,99039.19
2022-10-01T09:06:55.325Z,99039.03
2022-10-01T09:10:18.323Z,99037.56
2022-10-01T09:13:50.397Z,99038.03
2022-10-01T09:17:10.890Z,99047.13
2022-10-01T09:20:37.231Z,99032.78
2022-10-01T09:23:53.478Z,99037.56
2022-10-01T09:26:55.810Z,99044.94
2022-10-01T09:30:07.083Z,99033.50
2022-10-01T09:33:15.488Z,99043.00
2022-10-01T09:36:20.520Z,99043.22
2022-10-01T09:39:29.924Z,99026.00
2022-10-01T09:42:32.254Z,99025.91
2022-10-01T09:45:35.042Z,99025.09
2022-10-01T09:48:49.148Z,99029.78
2022-10-01T09:51:54.945Z,99026.47
2022-10-01T09:55:04.568Z,99030.31
2022-10-01T09:58:13.640Z,99024.78
2022-10-01T10:01:27.245Z,99026.53
2022-10-01T10:04:31.053Z,99015.41
2022-10-01T10:07:34.997Z,99007.47
2022-10-01T10:10:39.576Z,99018.19
2022-10-01T10:13:50.199Z,99012.22
2022-10-01T10:16:52.667Z,99015.47
2022-10-01T10:19:54.890Z,99015.13
2022-10-01T10:23:16.006Z,99018.97
2022-10-01T10:26:28.631Z,98998.31
2022-10-01T10:29:34.508Z,98993.72
2022-10-01T10:32:36.781Z,98982.97
2022-10-01T10:35:39.295Z,98976.75
2022-10-01T10:38:45.328Z,98975.44
2022-10-01T10:41:48.846Z,98969.28
2022-10-01T10:44:52.861Z,98976.28
2022-10-01T10:47:55.141Z,98972.91
2022-10-01T10:51:04.323Z,98968.09
2022-10-01T10:54:18.169Z,98961.09
2022-10-01T10:57:30.741Z,98948.91
2022-10-01T11:00:36.978Z,98946.81
2022-10-01T11:03:47.872Z,98942.75
2022-10-01T11:07:03.095Z,98937.66
2022-10-01T11:10:34.197Z,98934.66
2022-10-01T11:13:59.717Z,98931.72
2022-10-01T11:17:28.258Z,98937.47
2022-10-01T11:20:39.480Z,98927.16
2022-10-01T11:23:47.328Z,98922.00
2022-10-01T11:27:24.888Z,98917.53
2022-10-01T11:30:43.026Z,98911.63
2022-10-01T11:34:00.195Z,98898.97
2022-10-01T11:37:13.210Z,98889.53
2022-10-01T11:40:21.791Z,98887.94
2022-10-01T11:43:26.627Z,98880.94
2022-10-01T11:46:42.613Z,98885.53
2022-10-01T11:49:57.099Z,98873.94
2022-10-01T11:53:03.426Z,98877.97
2022-10-01T11:56:38.079Z,98867.41
2022-10-01T11:59:56.830Z,98868.22
2022-10-01T12:03:01.503Z,98863.38
2022-10-01T12:06:09.338Z,98860.19
2022-10-01T12:09:20.397Z,98859.41
2022-10-01T12:12:43.226Z,98848.91
2022-10-01T12:16:01.871Z,98845.13
2022-10-01T12:19:29.871Z,98842.44
2022-10-01T12:22:34.695Z,98838.38
2022-10-01T12:25:46.963Z,98845.66
2022-10-01T12:29:00.477Z,98835.69
2022-10-01T12:32:13.759Z,98836.78
2022-10-01T12:35:21.953Z,98832.97
2022-10-01T12:38:33.111Z,98823.28
2022-10-01T12:41:46.492Z,98817.88
2022-10-01T12:44:54.577Z,98806.59
2022-10-01T12:48:18.022Z,98811.44
2022-10-01T12:51:20.118Z,98830.53
2022-10-01T12:55:05.235Z,98818.97
2022-10-01T12:58:20.474Z,98821.66
2022-10-01T13:01:25.637Z,98813.59
2022-10-01T13:04:42.615Z,98814.63
2022-10-01T13:08:02.721Z,98805.25
2022-10-01T13:11:08.009Z,98799.06
2022-10-01T13:14:13.329Z,98794.75
2022-10-01T13:17:39.738Z,98792.91
2022-10-01T13:21:14.862Z,98788.59
2022-10-01T13:24:28.677Z,98777.56
2022-10-01T13:27:48.278Z,98767.03
2022-10-01T13:30:59.167Z,98765.72
2022-10-01T13:34:02.764Z,98766.78
2022-10-01T13:37:19.434Z,98769.97
2022-10-01T13:40:24.314Z,98754.09
2022-10-01T13:43:26.532Z,98771.63
2022-10-01T13:46:31.270Z,98763.28
2022-10-01T13:49:34.850Z,98761.63
2022-10-01T13:52:36.988Z,98749.25
2022-10-01T13:55:41.580Z,98740.66
2022-10-01T13:58:45.894Z,98730.69
2022-10-01T14:01:48.137Z,98727.75
2022-10-01T14:04:50.925Z,98739.84
2022-10-01T14:07:59.015Z,98727.47
2022-10-01T14:11:28.498Z,98727.97
2022-10-01T14:15:00.549Z,98722.06
2022-10-01T14:18:13.474Z,98730.13
2022-10-01T14:21:34.287Z,98733.31
2022-10-01T14:24:45.783Z,98727.13
2022-10-01T14:28:07.813Z,98734.38
2022-10-01T14:31:31.801Z,98734.00
2022-10-01T14:34:42.512Z,98726.19
2022-10-01T14:37:45.040Z,98713.03
2022-10-01T14:40:51.316Z,98721.59
2022-10-01T14:43:53.455Z,98724.03
2022-10-01T14:47:00.242Z,98722.69
2022-10-01T14:50:10.569Z,98725.09
2022-10-01T14:53:17.225Z,98727.22
2022-10-01T14:56:20.138Z,98701.97
2022-10-01T14:59:34.566Z,98701.09
2022-10-01T15:03:03.325Z,98704.84
2022-10-01T15:06:15.052Z,98695.72
2022-10-01T15:09:19.041Z,98702.78
2022-10-01T15:12:22.930Z,98708.34
2022-10-01T15:15:40.372Z,98700.28
2022-10-01T15:18:47.408Z,98707.22
2022-10-01T15:21:55.137Z,98715.25
2022-10-01T15:25:00.843Z,98719.50
2022-10-01T15:28:13.597Z,98712.97
2022-10-01T15:31:16.794Z,98720.56
2022-10-01T15:34:20.054Z,98715.16
2022-10-01T15:37:35.025Z,98721.06
2022-10-01T15:40:37.514Z,98731.66
2022-10-01T15:43:41.636Z,98726.75
2022-10-01T15:46:43.838Z,98728.41
2022-10-01T15:50:10.371Z,98723.59
2022-10-01T15:53:18.712Z,98730.06
2022-10-01T15:56:24.236Z,98725.25
2022-10-01T15:59:26.458Z,98724.91
2022-10-01T16:02:30.946Z,98724.91
2022-10-01T16:05:44.381Z,98720.28
2022-10-01T16:09:10.474Z,98726.19
2022-10-01T16:12:12.554Z,98733.75
2022-10-01T16:15:29.318Z,98738.41
2022-10-01T16:18:32.942Z,98733.31
2022-10-01T16:21:40.618Z,98737.91
2022-10-01T16:24:48.176Z,98723.66
2022-10-01T16:27:53.262Z,98722.19
2022-10-01T16:30:55.782Z,98731.25
2022-10-01T16:33:58.083Z,98734.31
2022-10-01T16:37:00.221Z,98743.81
2022-10-01T16:40:02.397Z,98743.81
2022-10-01T16:43:04.934Z,98737.44
2022-10-01T16:46:07.513Z,98743.28
2022-10-01T16:49:13.822Z,98743.78
2022-10-01T16:52:16.694Z,98749.44
2022-10-01T16:55:23.061Z,98744.13
2022-10-01T16:58:25.366Z,98735.37
2022-10-01T17:01:28.136Z,98740.91
2022-10-01T17:04:33.962Z,98742.50
2022-10-01T17:07:36.350Z,98746.94
2022-10-01T17:10:45.243Z,98751.41
2022-10-01T17:13:47.470Z,98746.28
2022-10-01T17:16:50.605Z,98746.53
2022-10-01T17:19:52.855Z,98751.47
2022-10-01T17:22:55.738Z,98746.47
2022-10-01T17:25:57.870Z,98746.72
2022-10-01T17:29:00.096Z,98744.13
2022-10-01T17:32:02.402Z,98740.31
2022-10-01T17:35:05.570Z,98739.34
2022-10-01T17:38:07.733Z,98745.31
2022-10-01T17:41:09.891Z,98747.12
2022-10-01T17:44:12.116Z,98744.59
2022-10-01T17:47:15.088Z,98744.25
2022-10-01T17:50:18.050Z,98738.44
2022-10-01T17:53:20.197Z,98737.13
2022-10-01T17:56:22.742Z,98739.31
2022-10-01T17:59:25.595Z,98753.25
2022-10-01T18:02:41.523Z,98758.28
2022-10-01T18:05:45.297Z,98748.47
2022-10-01T18:08:56.288Z,98751.78
2022-10-01T18:11:58.619Z,98763.50
2022-10-01T18:15:01.240Z,98756.97
2022-10-01T18:21:25.834Z,98756.78
2022-10-01T18:24:28.735Z,98754.94
2022-10-01T18:27:32.018Z,98767.63
2022-10-01T18:30:34.219Z,98771.47
2022-10-01T18:33:57.439Z,98782.03
2022-10-01T18:37:08.530Z,98780.28
2022-10-01T18:40:13.713Z,98783.81
2022-10-01T18:43:26.526Z,98794.47
2022-10-01T18:46:38.998Z,98794.06
2022-10-01T18:50:14.119Z,98800.91
2022-10-01T18:53:51.908Z,98793.72
2022-10-01T18:57:00.934Z,98795.56
2022-10-01T19:00:10.484Z,98791.66
2022-10-01T19:03:45.279Z,98795.69
2022-10-01T19:06:56.723Z,98812.97
2022-10-01T19:10:01.755Z,98799.63
2022-10-01T19:13:13.913Z,98813.31
2022-10-01T19:16:26.343Z,98813.06
2022-10-01T19:19:37.478Z,98814.25
2022-10-01T19:22:51.878Z,98811.59
2022-10-01T19:26:09.013Z,98821.22
2022-10-01T19:29:24.229Z,98824.31
2022-10-01T19:32:33.466Z,98820.03
2022-10-01T19:35:45.068Z,98821.31
2022-10-01T19:38:48.520Z,98830.47
2022-10-01T19:42:04.086Z,98829.81
2022-10-01T19:45:18.862Z,98827.22
2022-10-01T19:48:54.764Z,98825.00
2022-10-01T19:52:02.418Z,98830.81
2022-10-01T19:55:13.353Z,98825.03
2022-10-01T19:58:20.535Z,98838.47
2022-10-01T20:01:25.787Z,98839.28
2022-10-01T20:04:38.884Z,98842.78
2022-10-01T20:08:00.482Z,98848.69
2022-10-01T20:11:27.692Z,98841.94
2022-10-01T20:15:15.903Z,98847.59
2022-10-01T20:18:51.743Z,98857.94
2022-10-01T20:21:59.853Z,98856.56
2022-10-01T20:25:23.974Z,98854.94
2022-10-01T20:28:26.126Z,98854.12
2022-10-01T20:31:33.347Z,98845.06
2022-10-01T20:34:56.493Z,98840.88
2022-10-01T20:38:15.305Z,98834.41
2022-10-01T20:41:19.982Z,98841.59
2022-10-01T20:44:28.572Z,98849.38
2022-10-01T20:47:40.364Z,98857.37
2022-10-01T20:50:45.986Z,98869.09
2022-10-01T20:53:54.741Z,98876.06
2022-10-01T20:57:05.505Z,98879.78
2022-10-01T21:00:21.574Z,98880.50
2022-10-01T21:03:31.850Z,98890.13
2022-10-01T21:06:41.510Z,98893.50
2022-10-01T21:09:46.618Z,98898.50
2022-10-01T21:13:00.011Z,98903.72
2022-10-01T21:16:11.611Z,98914.50
2022-10-01T21:19:26.033Z,98912.09
2022-10-01T21:22:31.132Z,98919.63
2022-10-01T21:25:42.333Z,98910.91
2022-10-01T21:29:01.228Z,98908.50
2022-10-01T21:32:18.663Z,98911.84
2022-10-01T21:35:30.689Z,98911.13
2022-10-01T21:39:00.469Z,98922.75
2022-10-01T21:42:09.525Z,98916.94
2022-10-01T21:45:28.705Z,98930.28
2022-10-01T21:48:30.829Z,98922.25
2022-10-01T21:51:45.556Z,98936.25
2022-10-01T21:55:00.375Z,98943.56
2022-10-01T21:58:14.670Z,98945.75
2022-10-01T22:01:41.794Z,98932.06
2022-10-01T22:04:56.593Z,98928.13
2022-10-01T22:07:58.697Z,98924.00
2022-10-01T22:11:04.235Z,98924.94
2022-10-01T22:14:25.627Z,98940.91
2022-10-01T22:17:34.314Z,98927.69
2022-10-01T22:20:39.426Z,98935.81
2022-10-01T22:23:46.435Z,98945.34
2022-10-01T22:27:29.133Z,98936.19
2022-10-01T22:30:34.486Z,98932.03
2022-10-01T22:34:01.395Z,98930.19
2022-10-01T22:37:12.836Z,98926.00
2022-10-01T22:40:18.125Z,98929.03
2022-10-01T22:43:20.520Z,98945.34
2022-10-01T22:46:38.233Z,98948.66
2022-10-01T22:49:40.641Z,98954.06
2022-10-01T22:53:05.454Z,98955.22
2022-10-01T22:56:08.467Z,98958.34
2022-10-01T22:59:46.467Z,98961.69
2022-10-01T23:02:59.306Z,98960.78
2022-10-01T23:06:31.625Z,98961.81
2022-10-01T23:09:43.683Z,98970.63
2022-10-01T23:13:19.111Z,98975.91
2022-10-01T23:16:27.018Z,98966.28
2022-10-01T23:20:03.124Z,98974.50
2022-10-01T23:23:23.964Z,98973.59
2022-10-01T23:26:36.679Z,98971.84
2022-10-01T23:29:57.821Z,98970.69
2022-10-01T23:33:28.565Z,98959.69
2022-10-01T23:36:42.976Z,98975.59
2022-10-01T23:39:53.027Z,98963.97
2022-10-01T23:43:11.869Z,98961.75
2022-10-01T23:46:22.070Z,98979.59
2022-10-01T23:49:26.682Z,98968.03
2022-10-01T23:52:33.246Z,98973.09
2022-10-01T23:56:11.330Z,98974.28
2022-10-01T23:59:36.812Z,98975.97
